createdAt,value
2019-05-13T00:00:46.856Z,71.80
2019-05-13T00:03:15.584Z,61.90
2019-05-13T00:05:44.702Z,60.70
2019-05-13T00:08:14.098Z,67.20
2019-05-13T00:10:43.716Z,71.00
2019-05-13T00:13:14.749Z,64.40
2019-05-13T00:15:44.256Z,60.40
2019-05-13T00:18:14.330Z,62.00
2019-05-13T00:20:44.294Z,62.00
2019-05-13T00:23:14.288Z,62.50
2019-05-13T00:25:44.433Z,61.40
2019-05-13T00:28:14.449Z,61.20
2019-05-13T00:30:44.459Z,61.80
2019-05-13T00:33:14.012Z,61.90
2019-05-13T00:35:44.228Z,61.90
2019-05-13T00:38:14.149Z,61.30
2019-05-13T00:40:50.806Z,60.20
2019-05-13T00:43:19.591Z,61.30
2019-05-13T00:45:48.433Z,61.50
2019-05-13T00:48:17.312Z,62.30
2019-05-13T00:50:46.135Z,60.40
2019-05-13T00:53:15.039Z,60.50
2019-05-13T00:55:44.587Z,60.90
2019-05-13T00:58:14.168Z,59.40
2019-05-13T01:00:44.410Z,59.70
2019-05-13T01:03:14.028Z,61.80
2019-05-13T01:05:44.482Z,62.20
2019-05-13T01:08:14.576Z,62.40
2019-05-13T01:10:45.162Z,61.10
2019-05-13T01:13:14.253Z,61.70
2019-05-13T01:15:44.378Z,62.10
2019-05-13T01:18:14.243Z,62.00
2019-05-13T01:20:43.860Z,61.00
2019-05-13T01:23:14.110Z,61.60
2019-05-13T01:25:44.447Z,63.40
2019-05-13T01:28:34.453Z,62.00
2019-05-13T01:31:04.108Z,63.80
2019-05-13T01:33:35.109Z,62.90
2019-05-13T01:36:05.263Z,61.90
2019-05-13T01:38:34.459Z,62.60
2019-05-13T01:41:04.416Z,60.90
2019-05-13T01:43:33.601Z,63.60
2019-05-13T01:46:04.519Z,62.20
2019-05-13T01:48:33.389Z,62.80
2019-05-13T01:51:03.777Z,62.90
2019-05-13T01:53:33.613Z,65.20
2019-05-13T01:56:03.821Z,63.80
2019-05-13T01:58:33.955Z,61.80
2019-05-13T02:01:05.052Z,63.30
2019-05-13T02:03:33.901Z,61.60
2019-05-13T02:06:03.763Z,63.30
2019-05-13T02:08:33.639Z,62.20
2019-05-13T02:11:04.383Z,63.30
2019-05-13T02:13:34.315Z,66.60
2019-05-13T02:16:04.105Z,64.30
2019-05-13T02:18:34.142Z,61.70
2019-05-13T02:21:05.266Z,64.90
2019-05-13T02:23:34.110Z,63.50
2019-05-13T02:26:04.411Z,65.30
2019-05-13T02:28:33.572Z,66.00
2019-05-13T02:31:02.370Z,66.00
2019-05-13T02:33:57.121Z,66.40
2019-05-13T02:36:25.926Z,66.40
2019-05-13T02:38:54.780Z,64.90
2019-05-13T02:41:23.759Z,66.20
2019-05-13T02:43:52.827Z,65.00
2019-05-13T02:46:22.618Z,65.00
2019-05-13T02:48:52.802Z,62.20
2019-05-13T02:51:23.051Z,64.50
2019-05-13T02:53:52.498Z,63.20
2019-05-13T02:56:22.651Z,66.60
2019-05-13T02:58:52.666Z,63.40
2019-05-13T03:01:22.246Z,66.30
2019-05-13T03:03:52.826Z,65.70
2019-05-13T03:06:22.385Z,65.20
2019-05-13T03:08:54.492Z,64.30
2019-05-13T03:11:22.892Z,65.50
2019-05-13T03:13:52.887Z,64.60
2019-05-13T03:16:32.509Z,65.90
2019-05-13T03:19:02.806Z,66.90
2019-05-13T03:21:32.647Z,65.00
2019-05-13T03:24:03.447Z,64.50
2019-05-13T03:26:32.348Z,65.50
2019-05-13T03:29:02.767Z,66.20
2019-05-13T03:31:35.876Z,64.70
2019-05-13T03:34:06.339Z,64.80
2019-05-13T03:36:36.352Z,66.10
2019-05-13T03:39:10.876Z,65.70
2019-05-13T03:41:42.409Z,66.90
2019-05-13T03:44:13.413Z,65.50
2019-05-13T03:46:42.663Z,64.90
2019-05-13T03:49:13.770Z,67.30
2019-05-13T03:51:43.355Z,67.20
2019-05-13T03:54:13.077Z,67.70
2019-05-13T03:56:42.735Z,67.70
2019-05-13T03:59:13.290Z,65.70
2019-05-13T04:01:42.868Z,67.00
2019-05-13T04:04:12.769Z,66.60
2019-05-13T04:06:42.930Z,65.90
2019-05-13T04:09:25.060Z,65.50
2019-05-13T04:11:43.520Z,67.30
2019-05-13T04:14:12.681Z,66.00
2019-05-13T04:16:42.840Z,67.00
2019-05-13T04:19:12.398Z,68.80
2019-05-13T04:21:42.942Z,69.30
2019-05-13T04:24:12.387Z,66.70
2019-05-13T04:26:43.278Z,69.90
2019-05-13T04:29:13.271Z,71.50
2019-05-13T04:31:42.658Z,69.10
2019-05-13T04:34:12.485Z,67.40
2019-05-13T04:36:43.062Z,71.30
2019-05-13T04:39:13.047Z,72.40
2019-05-13T04:41:42.492Z,72.10
2019-05-13T04:44:13.080Z,72.50
2019-05-13T04:46:43.348Z,72.50
2019-05-13T04:49:12.702Z,73.80
2019-05-13T04:51:42.215Z,73.40
2019-05-13T04:54:13.010Z,73.50
2019-05-13T04:56:42.310Z,72.70
2019-05-13T04:59:12.436Z,69.60
2019-05-13T05:02:36.592Z,70.00
2019-05-13T05:05:05.772Z,70.40
2019-05-13T05:07:45.483Z,68.90
2019-05-13T05:10:33.823Z,66.00
2019-05-13T05:13:32.367Z,64.20
2019-05-13T05:16:32.729Z,63.30
2019-05-13T05:19:37.886Z,61.30
2019-05-13T05:22:16.388Z,58.70
2019-05-13T05:25:33.116Z,55.90
2019-05-13T05:28:16.137Z,56.30
2019-05-13T05:31:27.039Z,54.20
2019-05-13T05:34:16.788Z,52.20
2019-05-13T05:37:41.613Z,52.50
2019-05-13T05:40:12.347Z,51.80
2019-05-13T05:42:44.728Z,49.10
2019-05-13T05:45:14.060Z,46.80
2019-05-13T05:47:44.190Z,46.10
2019-05-13T05:50:13.659Z,45.60
2019-05-13T05:52:44.027Z,46.30
2019-05-13T05:55:13.103Z,44.30
2019-05-13T05:57:42.795Z,42.80
2019-05-13T06:00:13.153Z,42.80
2019-05-13T06:02:43.762Z,42.60
2019-05-13T06:05:12.873Z,41.50
2019-05-13T06:07:42.569Z,40.90
2019-05-13T06:10:12.529Z,40.60
2019-05-13T06:12:42.406Z,39.50
2019-05-13T06:15:12.357Z,38.10
2019-05-13T06:17:41.494Z,38.70
2019-05-13T06:20:13.255Z,38.20
2019-05-13T06:22:42.584Z,38.10
2019-05-13T06:25:14.558Z,37.20
2019-05-13T06:27:42.564Z,36.40
2019-05-13T06:30:12.564Z,35.60
2019-05-13T06:32:42.078Z,35.60
2019-05-13T06:35:11.576Z,34.80
2019-05-13T06:37:41.487Z,34.80
2019-05-13T06:40:12.411Z,34.20
2019-05-13T06:42:41.830Z,33.60
2019-05-13T06:45:12.460Z,33.90
2019-05-13T06:47:41.602Z,33.60
2019-05-13T06:50:11.681Z,32.90
2019-05-13T06:52:42.524Z,32.60
2019-05-13T06:55:11.749Z,32.90
2019-05-13T06:57:42.239Z,34.20
2019-05-13T07:00:12.304Z,32.60
2019-05-13T07:02:42.767Z,31.50
2019-05-13T07:05:12.343Z,31.70
2019-05-13T07:07:42.401Z,33.00
2019-05-13T07:10:12.708Z,31.60
2019-05-13T07:12:41.909Z,30.90
2019-05-13T07:15:11.694Z,30.80
2019-05-13T07:17:41.610Z,30.50
2019-05-13T07:20:11.813Z,30.30
2019-05-13T07:22:42.073Z,30.00
2019-05-13T07:25:11.563Z,30.00
2019-05-13T07:27:42.391Z,29.90
2019-05-13T07:30:11.706Z,29.30
2019-05-13T07:32:42.067Z,29.50
2019-05-13T07:35:14.279Z,29.20
2019-05-13T07:37:42.865Z,28.70
2019-05-13T07:43:12.410Z,28.80
2019-05-13T07:45:42.316Z,28.30
2019-05-13T07:48:20.605Z,28.30
2019-05-13T07:50:53.369Z,28.00
2019-05-13T07:53:18.542Z,28.70
2019-05-13T07:55:43.001Z,30.40
2019-05-13T07:58:11.885Z,28.30
2019-05-13T08:00:41.865Z,27.50
2019-05-13T08:03:12.253Z,28.00
2019-05-13T08:05:41.993Z,27.90
2019-05-13T08:08:13.124Z,28.60
2019-05-13T08:10:42.378Z,28.40
2019-05-13T08:13:12.083Z,28.40
2019-05-13T08:15:42.170Z,27.80
2019-05-13T08:18:12.225Z,27.80
2019-05-13T08:20:42.162Z,27.90
2019-05-13T08:23:11.913Z,27.90
2019-05-13T08:25:42.473Z,28.00
2019-05-13T08:28:12.394Z,27.30
2019-05-13T08:30:42.583Z,27.20
2019-05-13T08:33:12.511Z,27.50
2019-05-13T08:35:41.942Z,27.40
2019-05-13T08:38:12.288Z,28.00
2019-05-13T08:40:42.455Z,28.40
2019-05-13T08:43:12.156Z,29.40
2019-05-13T08:45:42.125Z,29.80
2019-05-13T08:48:12.675Z,29.70
2019-05-13T08:50:42.169Z,30.10
2019-05-13T08:53:12.158Z,28.60
2019-05-13T08:55:42.575Z,28.70
2019-05-13T08:58:12.648Z,29.30
2019-05-13T09:00:52.948Z,31.20
2019-05-13T09:03:21.890Z,32.60
2019-05-13T09:05:52.220Z,31.60
2019-05-13T09:08:23.416Z,32.90
2019-05-13T09:10:56.528Z,33.70
2019-05-13T09:13:23.252Z,33.40
2019-05-13T09:15:52.149Z,32.80
2019-05-13T09:18:22.825Z,33.20
2019-05-13T09:20:52.205Z,33.50
2019-05-13T09:25:52.349Z,34.10
2019-05-13T09:28:22.152Z,34.20
2019-05-13T09:30:53.112Z,33.90
2019-05-13T09:33:23.965Z,34.90
2019-05-13T09:35:53.746Z,33.70
2019-05-13T09:38:22.754Z,33.30
2019-05-13T09:40:53.116Z,33.80
2019-05-13T09:43:22.490Z,34.70
2019-05-13T09:46:11.842Z,34.90
2019-05-13T09:48:42.468Z,35.10
2019-05-13T09:51:12.415Z,35.30
2019-05-13T09:53:42.069Z,34.80
2019-05-13T09:56:12.933Z,35.60
2019-05-13T09:58:43.166Z,36.00
2019-05-13T10:01:12.493Z,36.40
2019-05-13T10:03:53.967Z,36.10
2019-05-13T10:06:12.781Z,37.90
2019-05-13T10:08:42.122Z,37.40
2019-05-13T10:11:12.323Z,37.10
2019-05-13T10:13:41.531Z,37.70
2019-05-13T10:16:12.471Z,36.30
2019-05-13T10:18:42.114Z,35.80
2019-05-13T10:21:11.390Z,35.20
2019-05-13T10:23:41.841Z,34.40
2019-05-13T10:26:14.059Z,34.30
2019-05-13T10:28:43.575Z,35.00
2019-05-13T10:31:12.581Z,35.10
2019-05-13T10:33:42.058Z,36.20
2019-05-13T10:36:12.136Z,35.80
2019-05-13T10:38:41.570Z,36.20
2019-05-13T10:41:12.024Z,36.50
2019-05-13T10:43:44.123Z,36.60
2019-05-13T10:46:12.802Z,36.60
2019-05-13T10:48:41.846Z,37.10
2019-05-13T10:51:13.128Z,36.40
2019-05-13T10:53:42.578Z,35.20
2019-05-13T10:56:11.853Z,34.50
2019-05-13T10:58:42.582Z,35.60
2019-05-13T11:01:11.862Z,34.00
2019-05-13T11:03:42.751Z,32.90
2019-05-13T11:06:11.762Z,33.50
2019-05-13T11:08:42.260Z,32.10
2019-05-13T11:11:12.990Z,32.70
2019-05-13T11:13:56.417Z,32.00
2019-05-13T11:16:12.390Z,32.20
2019-05-13T11:18:41.415Z,31.40
2019-05-13T11:21:12.970Z,32.80
2019-05-13T11:23:40.768Z,32.70
2019-05-13T11:26:10.096Z,32.60
2019-05-13T11:28:42.707Z,32.80
2019-05-13T11:31:10.601Z,32.30
2019-05-13T11:33:42.312Z,32.10
2019-05-13T11:36:12.916Z,32.00
2019-05-13T11:38:43.104Z,33.60
2019-05-13T11:41:11.796Z,31.70
2019-05-13T11:43:41.366Z,32.60
2019-05-13T11:46:10.598Z,32.90
2019-05-13T11:48:42.112Z,33.00
2019-05-13T11:51:13.137Z,33.00
2019-05-13T11:53:42.843Z,32.80
2019-05-13T11:56:12.196Z,33.30
2019-05-13T12:01:11.902Z,33.70
2019-05-13T12:03:43.477Z,34.30
2019-05-13T12:06:11.323Z,34.00
2019-05-13T12:08:43.683Z,34.30
2019-05-13T12:11:13.903Z,33.90
2019-05-13T12:13:42.639Z,33.80
2019-05-13T12:16:12.830Z,33.70
2019-05-13T12:18:43.818Z,33.40
2019-05-13T12:21:12.466Z,32.80
2019-05-13T12:23:42.815Z,33.30
2019-05-13T12:26:12.871Z,33.60
2019-05-13T12:28:42.236Z,33.60
2019-05-13T12:31:12.164Z,33.10
2019-05-13T12:33:44.055Z,34.10
2019-05-13T12:36:17.924Z,34.30
2019-05-13T12:38:44.328Z,33.80
2019-05-13T12:41:13.083Z,33.80
2019-05-13T12:43:42.743Z,33.30
2019-05-13T12:46:12.587Z,33.20
2019-05-13T12:48:41.806Z,33.90
2019-05-13T12:51:13.184Z,32.70
2019-05-13T12:53:43.441Z,32.60
2019-05-13T12:56:12.590Z,32.00
2019-05-13T12:58:41.672Z,32.60
2019-05-13T13:01:12.717Z,31.30
2019-05-13T13:03:40.967Z,33.10
2019-05-13T13:06:27.018Z,32.90
2019-05-13T13:08:48.393Z,32.30
2019-05-13T13:11:11.154Z,32.10
2019-05-13T13:13:58.166Z,32.20
2019-05-13T13:16:12.598Z,33.30
2019-05-13T13:18:43.488Z,32.80
2019-05-13T13:21:14.470Z,32.20
2019-05-13T13:23:42.914Z,32.40
2019-05-13T13:26:15.753Z,32.20
2019-05-13T13:28:43.479Z,31.60
2019-05-13T13:31:13.166Z,32.20
2019-05-13T13:33:44.462Z,32.90
2019-05-13T13:36:15.746Z,31.40
2019-05-13T13:38:44.118Z,31.60
2019-05-13T13:41:21.998Z,31.90
2019-05-13T13:43:43.670Z,31.90
2019-05-13T13:46:32.673Z,32.30
2019-05-13T13:48:44.049Z,31.60
2019-05-13T13:51:14.408Z,31.90
2019-05-13T13:53:44.639Z,30.70
2019-05-13T13:56:15.680Z,30.50
2019-05-13T13:58:44.511Z,30.50
2019-05-13T14:01:19.973Z,29.90
2019-05-13T14:03:45.996Z,31.00
2019-05-13T14:06:30.770Z,32.80
2019-05-13T14:07:00.600Z,29.90
2019-05-13T14:07:03.865Z,34.40
2019-05-13T14:08:44.889Z,30.00
2019-05-13T14:11:13.723Z,29.60
2019-05-13T14:13:42.708Z,29.50
2019-05-13T14:16:24.868Z,29.60
2019-05-13T14:18:45.177Z,31.70
2019-05-13T14:21:14.069Z,30.30
2019-05-13T14:23:43.164Z,29.40
2019-05-13T14:26:12.008Z,29.50
2019-05-13T14:28:42.077Z,30.30
2019-05-13T14:31:12.919Z,30.30
2019-05-13T14:33:42.409Z,30.90
2019-05-13T14:36:12.250Z,30.60
2019-05-13T14:38:41.275Z,29.90
2019-05-13T14:41:12.441Z,29.40
2019-05-13T14:43:40.719Z,30.30
2019-05-13T14:46:09.550Z,30.30
2019-05-13T14:48:38.411Z,29.90
2019-05-13T14:51:07.276Z,29.70
2019-05-13T14:53:36.392Z,30.00
2019-05-13T14:56:05.298Z,30.20
2019-05-13T14:58:34.149Z,31.40
2019-05-13T15:01:19.758Z,31.60
2019-05-13T15:03:33.575Z,32.30
2019-05-13T15:06:02.777Z,32.30
2019-05-13T15:08:32.809Z,31.30
2019-05-13T15:11:02.206Z,32.00
2019-05-13T15:13:32.031Z,31.40
2019-05-13T15:16:01.093Z,30.80
2019-05-13T15:18:32.530Z,31.10
2019-05-13T15:21:01.687Z,30.00
2019-05-13T15:23:31.623Z,30.80
2019-05-13T15:26:02.226Z,31.60
2019-05-13T15:28:32.619Z,31.20
2019-05-13T15:31:01.418Z,31.20
2019-05-13T15:33:32.641Z,30.50
2019-05-13T15:36:01.831Z,31.10
2019-05-13T15:38:31.996Z,31.70
2019-05-13T15:41:02.077Z,31.60
2019-05-13T15:43:31.906Z,30.80
2019-05-13T15:46:01.749Z,31.50
2019-05-13T15:48:31.673Z,31.30
2019-05-13T15:51:02.134Z,31.40
2019-05-13T15:53:32.069Z,32.10
2019-05-13T15:56:02.574Z,31.70
2019-05-13T15:58:38.784Z,31.90
2019-05-13T16:01:02.975Z,32.40
2019-05-13T16:03:32.076Z,32.30
2019-05-13T16:06:01.725Z,32.60
2019-05-13T16:08:31.827Z,32.70
2019-05-13T16:11:02.180Z,33.20
2019-05-13T16:13:31.919Z,33.50
2019-05-13T16:16:01.645Z,34.00
2019-05-13T16:18:31.673Z,33.40
2019-05-13T16:21:01.755Z,33.10
2019-05-13T16:23:32.291Z,33.30
2019-05-13T16:26:01.807Z,32.90
2019-05-13T16:28:32.604Z,32.60
2019-05-13T16:31:02.239Z,32.90
2019-05-13T16:33:31.617Z,33.30
2019-05-13T16:36:02.535Z,33.30
2019-05-13T16:38:32.833Z,33.40
2019-05-13T16:41:01.560Z,33.50
2019-05-13T16:43:31.957Z,33.50
2019-05-13T16:46:01.018Z,32.90
2019-05-13T16:48:32.138Z,33.30
2019-05-13T16:51:00.514Z,32.30
2019-05-13T16:53:31.513Z,32.50
2019-05-13T16:56:01.800Z,32.80
2019-05-13T16:58:32.487Z,32.10
2019-05-13T17:01:02.376Z,31.70
2019-05-13T17:03:31.928Z,31.50
2019-05-13T17:06:02.081Z,32.30
2019-05-13T17:08:31.864Z,32.20
2019-05-13T17:11:02.253Z,32.00
2019-05-13T17:13:31.585Z,32.20
2019-05-13T17:16:01.602Z,32.10
2019-05-13T17:18:32.376Z,31.70
2019-05-13T17:21:01.523Z,32.00
2019-05-13T17:23:30.676Z,31.50
2019-05-13T17:26:01.909Z,32.40
2019-05-13T17:28:38.124Z,31.20
2019-05-13T17:31:07.059Z,32.10
2019-05-13T17:33:36.114Z,31.60
2019-05-13T17:36:05.310Z,32.30
2019-05-13T17:38:34.164Z,31.10
2019-05-13T17:41:03.078Z,31.30
2019-05-13T17:43:32.282Z,32.30
2019-05-13T17:46:01.197Z,31.20
2019-05-13T17:48:32.784Z,30.80
2019-05-13T17:51:01.311Z,31.20
2019-05-13T17:53:32.513Z,31.10
2019-05-13T17:56:02.335Z,30.80
2019-05-13T17:58:31.609Z,31.20
2019-05-13T18:01:01.999Z,30.50
2019-05-13T18:03:32.066Z,30.50
2019-05-13T18:06:02.502Z,30.30
2019-05-13T18:08:32.178Z,30.80
2019-05-13T18:11:02.219Z,30.90
2019-05-13T18:13:31.701Z,30.90
2019-05-13T18:16:02.583Z,31.10
2019-05-13T18:18:52.891Z,31.30
2019-05-13T18:21:21.853Z,31.80
2019-05-13T18:23:52.321Z,31.80
2019-05-13T18:26:21.721Z,31.80
2019-05-13T18:28:51.444Z,32.70
2019-05-13T18:31:24.315Z,32.60
2019-05-13T18:33:51.590Z,32.10
2019-05-13T18:36:22.311Z,32.10
2019-05-13T18:38:51.057Z,32.60
2019-05-13T18:41:21.424Z,32.70
2019-05-13T18:43:54.394Z,32.40
2019-05-13T18:46:25.185Z,32.50
2019-05-13T18:48:59.015Z,32.90
2019-05-13T18:51:24.922Z,32.60
2019-05-13T18:54:01.314Z,33.00
2019-05-13T18:56:32.306Z,33.30
2019-05-13T18:59:02.129Z,33.80
2019-05-13T19:01:32.063Z,33.70
2019-05-13T19:04:01.908Z,33.80
2019-05-13T19:06:31.592Z,34.20
2019-05-13T19:09:02.247Z,34.30
2019-05-13T19:11:31.789Z,34.50
2019-05-13T19:14:00.734Z,34.80
2019-05-13T19:16:31.776Z,34.70
2019-05-13T19:19:11.856Z,34.60
2019-05-13T19:21:31.484Z,35.00
2019-05-13T19:24:02.024Z,35.00
2019-05-13T19:26:31.270Z,35.40
2019-05-13T19:29:02.069Z,35.30
2019-05-13T19:31:32.451Z,35.60
2019-05-13T19:34:01.539Z,35.50
2019-05-13T19:36:30.404Z,35.70
2019-05-13T19:39:01.676Z,35.80
2019-05-13T19:41:31.526Z,36.50
2019-05-13T19:44:01.606Z,35.80
2019-05-13T19:46:31.466Z,36.00
2019-05-13T19:49:01.541Z,36.00
2019-05-13T19:51:32.266Z,36.20
2019-05-13T19:54:01.456Z,36.30
2019-05-13T19:56:31.970Z,36.60
2019-05-13T19:59:01.572Z,36.30
2019-05-13T20:01:32.227Z,36.30
2019-05-13T20:04:02.427Z,36.30
2019-05-13T20:06:32.015Z,36.40
2019-05-13T20:09:01.618Z,36.60
2019-05-13T20:11:30.608Z,36.60
2019-05-13T20:14:01.370Z,36.70
2019-05-13T20:16:32.073Z,36.80
2019-05-13T20:19:01.385Z,36.80
2019-05-13T20:21:31.998Z,36.80
2019-05-13T20:24:01.288Z,36.90
2019-05-13T20:26:32.282Z,36.80
2019-05-13T20:29:01.633Z,37.00
2019-05-13T20:31:32.223Z,37.30
2019-05-13T20:34:01.723Z,37.20
2019-05-13T20:36:31.508Z,37.10
2019-05-13T20:39:02.090Z,37.20
2019-05-13T20:41:31.694Z,37.50
2019-05-13T20:44:01.446Z,38.00
2019-05-13T20:46:32.640Z,38.60
2019-05-13T20:49:01.001Z,39.00
2019-05-13T20:51:31.302Z,39.30
2019-05-13T20:54:02.406Z,39.00
2019-05-13T20:56:31.820Z,38.80
2019-05-13T20:59:00.785Z,38.90
2019-05-13T21:01:29.717Z,39.30
2019-05-13T21:03:58.651Z,39.70
2019-05-13T21:06:27.495Z,40.00
2019-05-13T21:08:56.532Z,40.20
2019-05-13T21:11:25.458Z,40.50
2019-05-13T21:13:54.346Z,40.70
2019-05-13T21:16:23.386Z,40.90
2019-05-13T21:18:52.178Z,40.90
2019-05-13T21:21:22.147Z,41.20
2019-05-13T21:23:52.201Z,41.00
2019-05-13T21:26:22.485Z,41.00
2019-05-13T21:28:52.191Z,41.30
2019-05-13T21:31:21.553Z,41.50
2019-05-13T21:33:51.550Z,41.90
2019-05-13T21:36:21.646Z,41.80
2019-05-13T21:38:50.625Z,42.00
2019-05-13T21:41:21.165Z,42.10
2019-05-13T21:43:51.870Z,41.70
2019-05-13T21:46:21.244Z,41.90
2019-05-13T21:48:52.053Z,41.80
2019-05-13T21:51:22.137Z,41.80
2019-05-13T21:53:51.893Z,41.80
2019-05-13T21:56:23.068Z,42.00
2019-05-13T21:58:52.228Z,41.80
2019-05-13T22:01:23.396Z,41.80
2019-05-13T22:03:51.860Z,42.10
2019-05-13T22:06:21.822Z,42.20
2019-05-13T22:08:51.880Z,42.30
2019-05-13T22:11:22.211Z,42.50
2019-05-13T22:13:54.021Z,42.60
2019-05-13T22:16:22.852Z,42.50
2019-05-13T22:18:52.453Z,42.50
2019-05-13T22:21:22.227Z,42.50
2019-05-13T22:23:51.807Z,42.50
2019-05-13T22:26:22.192Z,43.20
2019-05-13T22:28:51.346Z,42.50
2019-05-13T22:31:22.154Z,42.40
2019-05-13T22:33:51.876Z,42.40
2019-05-13T22:36:21.360Z,42.20
2019-05-13T22:38:51.699Z,42.20
2019-05-13T22:41:22.228Z,42.10
2019-05-13T22:43:58.225Z,41.90
2019-05-13T22:46:22.059Z,42.20
2019-05-13T22:48:51.350Z,42.30
2019-05-13T22:51:21.399Z,42.30
2019-05-13T22:54:11.644Z,42.40
2019-05-13T22:56:41.235Z,42.20
2019-05-13T22:59:12.249Z,42.20
2019-05-13T23:01:41.792Z,42.50
2019-05-13T23:04:11.470Z,42.80
2019-05-13T23:06:40.576Z,42.90
2019-05-13T23:09:09.486Z,43.10
2019-05-13T23:11:38.388Z,43.30
2019-05-13T23:14:10.182Z,43.40
2019-05-13T23:16:37.758Z,43.50
2019-05-13T23:19:06.581Z,43.50
2019-05-13T23:21:35.318Z,44.10
2019-05-13T23:24:04.205Z,44.20
2019-05-13T23:26:33.397Z,44.30
2019-05-13T23:29:02.177Z,44.50
2019-05-13T23:31:30.904Z,44.70
2019-05-13T23:34:01.395Z,44.70
2019-05-13T23:36:31.621Z,44.80
2019-05-13T23:39:01.040Z,45.10
2019-05-13T23:41:30.017Z,45.30
2019-05-13T23:43:58.851Z,45.60
2019-05-13T23:46:27.685Z,45.60
2019-05-13T23:48:56.559Z,45.70
2019-05-13T23:51:25.416Z,45.90
2019-05-13T23:53:54.256Z,45.90
2019-05-13T23:56:23.238Z,46.10
2019-05-13T23:58:52.133Z,46.40
